»·PEaware :: AAL343 KSAN-KPHX

AAL343 :: KSAN-KPHX

FLIGHT INFORMATION

Flight Status: Arrived
Operator:
American Airlines
More flights by this operator :: More flights under this callsign
Pilot: James W. (12414)
Aircraft: BOEING 737-800
(B738)
More flights by this aircraft type
Origin: KSAN San Diego Intl-Lindbergh
United States
Destination: KPHX Phoenix Sky Harbor Intl
United States
More flights between these airports :: More routes between these airports
Route: ZZOOO2 IPL J18 HOGGZ HYDRR1
File this flight plan on PilotEdge
Remarks:
Altitude:
(Current/Filed)
310ft
Speed:
(Current/Filed)
500kts
Departed: 20-Apr-18 03:36 PM
Arrived: 20-Apr-18 04:29 PM
Distance/Time
Traveled:
264nm/0:53
Distance/Time
To Go:
Arrived

Flight Plot

Page will automatically refresh every two minutes.

Flight plan parsing failed; only flown route is shown


Map Options




Map Legend


Flown Route
Filed Route
Departure Airport
Arrival Airport
Navaid (VOR, NDB)
Fix

Horizontal Profiles

Position Reports

Time Latitude Longitude Heading Altitude Ground
Speed
20-Apr-18 15:07 32.734520 -117.203412 230 25ft 0kts
20-Apr-18 15:08 32.734520 -117.203412 230 25ft 0kts
20-Apr-18 15:09 32.734520 -117.203412 230 25ft 0kts
20-Apr-18 15:10 32.734520 -117.203412 230 25ft 0kts
20-Apr-18 15:11 32.734520 -117.203412 230 25ft 0kts
20-Apr-18 15:12 32.734520 -117.203412 230 25ft 0kts
20-Apr-18 15:13 32.734520 -117.203412 230 25ft 0kts
20-Apr-18 15:14 32.734520 -117.203412 230 25ft 0kts
20-Apr-18 15:15 32.734520 -117.203412 230 25ft 0kts
20-Apr-18 15:16 32.734520 -117.203412 230 25ft 0kts
20-Apr-18 15:17 32.734520 -117.203412 230 25ft 0kts
20-Apr-18 15:18 32.734520 -117.203412 230 25ft 0kts
20-Apr-18 15:19 32.734520 -117.203412 230 25ft 0kts
20-Apr-18 15:20 32.734520 -117.203412 230 25ft 0kts
20-Apr-18 15:21 32.734520 -117.203412 230 25ft 0kts
20-Apr-18 15:22 32.734520 -117.203412 230 25ft 0kts
20-Apr-18 15:23 32.734520 -117.203412 230 25ft 0kts
20-Apr-18 15:24 32.734520 -117.203412 230 25ft 0kts
20-Apr-18 15:25 32.734520 -117.203412 230 25ft 0kts
20-Apr-18 15:26 32.734784 -117.203047 204 25ft 1kts
20-Apr-18 15:27 32.735065 -117.203142 100 25ft 2kts
20-Apr-18 15:28 32.735079 -117.203230 102 25ft 0kts
20-Apr-18 15:29 32.735079 -117.203229 102 25ft 0kts
20-Apr-18 15:30 32.735034 -117.202960 97 25ft 9kts
20-Apr-18 15:31 32.734569 -117.198162 106 25ft 21kts
20-Apr-18 15:32 32.732823 -117.191033 106 25ft 23kts
20-Apr-18 15:33 32.730335 -117.180747 107 25ft 31kts
20-Apr-18 15:34 32.730093 -117.175827 341 25ft 9kts
20-Apr-18 15:35 32.736930 -117.203606 285 451ft 189kts
20-Apr-18 15:36 32.753395 -117.271429 285 2581ft 226kts
20-Apr-18 15:37 32.729312 -117.330404 181 4987ft 269kts
20-Apr-18 15:38 32.665708 -117.277637 137 7395ft 292kts
20-Apr-18 15:39 32.622817 -117.200442 91 9739ft 293kts
20-Apr-18 15:40 32.616569 -117.102101 92 12214ft 313kts
20-Apr-18 15:41 32.607733 -116.995354 93 14738ft 338kts
20-Apr-18 15:42 32.604219 -116.882713 72 17238ft 348kts
20-Apr-18 15:43 32.628418 -116.770331 76 19727ft 358kts
20-Apr-18 15:44 32.641140 -116.651864 79 21746ft 376kts
20-Apr-18 15:45 32.654171 -116.520985 79 22642ft 423kts
20-Apr-18 15:46 32.668242 -116.376399 80 23516ft 468kts
20-Apr-18 15:47 32.683204 -116.219986 80 25014ft 492kts
20-Apr-18 15:48 32.698584 -116.056583 81 26690ft 508kts
20-Apr-18 15:49 32.714060 -115.889931 81 28729ft 511kts
20-Apr-18 15:50 32.729325 -115.723093 81 30622ft 512kts
20-Apr-18 15:51 32.744289 -115.556744 82 31044ft 512kts
20-Apr-18 15:52 32.752452 -115.389324 86 31051ft 511kts
20-Apr-18 15:53 32.756244 -115.222809 87 31050ft 510kts
20-Apr-18 15:54 32.760124 -115.054556 86 31056ft 520kts
20-Apr-18 15:55 32.763661 -114.881317 86 31051ft 528kts
20-Apr-18 15:56 32.766904 -114.707694 86 30939ft 530kts
20-Apr-18 15:57 32.769881 -114.531247 86 29072ft 530kts
20-Apr-18 15:58 32.771951 -114.359380 86 27217ft 519kts
20-Apr-18 15:59 32.773970 -114.200726 86 25455ft 519kts
20-Apr-18 16:00 32.778478 -114.032235 78 25048ft 510kts
20-Apr-18 16:01 32.796971 -113.863042 77 25032ft 515kts
20-Apr-18 16:02 32.817672 -113.697000 67 25019ft 503kts
20-Apr-18 16:03 32.898214 -113.572998 38 24038ft 464kts
20-Apr-18 16:04 32.979507 -113.466138 41 21936ft 424kts
20-Apr-18 16:05 33.054279 -113.365702 41 19805ft 392kts
20-Apr-18 16:06 33.121587 -113.275044 41 17740ft 368kts
20-Apr-18 16:07 33.187247 -113.186317 42 15653ft 350kts
20-Apr-18 16:08 33.247623 -113.104232 41 14996ft 302kts
20-Apr-18 16:09 33.277690 -113.008979 81 14147ft 342kts
20-Apr-18 16:10 33.280057 -112.896101 84 12176ft 341kts
20-Apr-18 16:11 33.284541 -112.785732 81 10997ft 316kts
20-Apr-18 16:12 33.294072 -112.682722 80 11010ft 311kts
20-Apr-18 16:13 33.303571 -112.580183 80 10997ft 303kts
20-Apr-18 16:14 33.311822 -112.489254 80 11023ft 256kts
20-Apr-18 16:15 33.319512 -112.405052 80 11011ft 255kts
20-Apr-18 16:16 33.326801 -112.325175 81 10714ft 265kts
20-Apr-18 16:17 33.334541 -112.240475 82 9570ft 266kts
20-Apr-18 16:18 33.342271 -112.154885 81 8997ft 248kts
20-Apr-18 16:19 33.348349 -112.086298 84 9002ft 251kts
20-Apr-18 16:20 33.347736 -111.996314 90 7155ft 284kts
20-Apr-18 16:21 33.346731 -111.902866 89 5050ft 271kts
20-Apr-18 16:22 33.347660 -111.819138 89 3999ft 228kts
20-Apr-18 16:23 33.388746 -111.787975 355 4052ft 195kts
20-Apr-18 16:24 33.424068 -111.825849 298 3988ft 186kts
20-Apr-18 16:25 33.440240 -111.883298 269 2913ft 182kts
20-Apr-18 16:26 33.440885 -111.943641 267 1943ft 176kts
20-Apr-18 16:27 33.440854 -111.991061 267 1205ft 134kts
20-Apr-18 16:28 33.440623 -112.010587 233 1142ft 15kts
20-Apr-18 16:29 33.439753 -112.008748 89 1142ft 19kts

Navigation Log

Ident Type
Flight plan parsing failed, navigation log unavailable